sensor_id;sensor_type;location;lat;lon;timestamp;P1;durP1;ratioP1;P2;durP2;ratioP2
77571;SDS011;67214;47.454;18.966;2023-03-21T00:00:56;15.18;;;6.83;;
77571;SDS011;67214;47.454;18.966;2023-03-21T00:03:26;8.60;;;7.40;;
77571;SDS011;67214;47.454;18.966;2023-03-21T00:05:54;8.28;;;7.00;;
77571;SDS011;67214;47.454;18.966;2023-03-21T00:08:22;9.18;;;6.55;;
77571;SDS011;67214;47.454;18.966;2023-03-21T00:10:54;13.32;;;6.37;;
77571;SDS011;67214;47.454;18.966;2023-03-21T00:13:24;9.18;;;7.35;;
77571;SDS011;67214;47.454;18.966;2023-03-21T00:15:52;9.55;;;6.90;;
77571;SDS011;67214;47.454;18.966;2023-03-21T00:18:21;8.88;;;6.87;;
77571;SDS011;67214;47.454;18.966;2023-03-21T00:20:56;9.53;;;6.55;;
77571;SDS011;67214;47.454;18.966;2023-03-21T00:25:52;8.23;;;6.62;;
77571;SDS011;67214;47.454;18.966;2023-03-21T00:28:20;11.45;;;6.83;;
77571;SDS011;67214;47.454;18.966;2023-03-21T00:30:48;9.65;;;6.90;;
77571;SDS011;67214;47.454;18.966;2023-03-21T00:33:16;7.25;;;6.05;;
77571;SDS011;67214;47.454;18.966;2023-03-21T00:35:45;8.88;;;6.75;;
77571;SDS011;67214;47.454;18.966;2023-03-21T00:38:17;11.00;;;7.83;;
77571;SDS011;67214;47.454;18.966;2023-03-21T00:40:45;9.23;;;6.75;;
77571;SDS011;67214;47.454;18.966;2023-03-21T00:43:13;7.97;;;6.35;;
77571;SDS011;67214;47.454;18.966;2023-03-21T00:45:43;7.28;;;6.20;;
77571;SDS011;67214;47.454;18.966;2023-03-21T00:48:11;12.07;;;6.60;;
77571;SDS011;67214;47.454;18.966;2023-03-21T00:50:39;8.60;;;6.78;;
77571;SDS011;67214;47.454;18.966;2023-03-21T00:53:08;9.70;;;7.83;;
77571;SDS011;67214;47.454;18.966;2023-03-21T00:55:36;11.22;;;7.80;;
77571;SDS011;67214;47.454;18.966;2023-03-21T00:58:04;12.13;;;8.58;;
77571;SDS011;67214;47.454;18.966;2023-03-21T01:00:32;10.95;;;8.13;;
77571;SDS011;67214;47.454;18.966;2023-03-21T01:03:02;11.55;;;8.48;;
77571;SDS011;67214;47.454;18.966;2023-03-21T01:05:33;12.05;;;8.80;;
77571;SDS011;67214;47.454;18.966;2023-03-21T01:08:10;10.63;;;8.78;;
77571;SDS011;67214;47.454;18.966;2023-03-21T01:10:40;13.20;;;8.68;;
77571;SDS011;67214;47.454;18.966;2023-03-21T01:13:10;12.30;;;9.00;;
77571;SDS011;67214;47.454;18.966;2023-03-21T01:15:52;13.78;;;7.85;;
77571;SDS011;67214;47.454;18.966;2023-03-21T01:18:17;13.62;;;8.63;;
77571;SDS011;67214;47.454;18.966;2023-03-21T01:20:47;10.08;;;7.97;;
77571;SDS011;67214;47.454;18.966;2023-03-21T01:23:14;12.47;;;8.60;;
77571;SDS011;67214;47.454;18.966;2023-03-21T01:25:42;12.90;;;9.48;;
77571;SDS011;67214;47.454;18.966;2023-03-21T01:28:10;12.65;;;8.83;;
77571;SDS011;67214;47.454;18.966;2023-03-21T01:30:37;9.68;;;8.28;;
77571;SDS011;67214;47.454;18.966;2023-03-21T01:33:04;11.78;;;9.23;;
77571;SDS011;67214;47.454;18.966;2023-03-21T01:35:32;11.57;;;8.48;;
77571;SDS011;67214;47.454;18.966;2023-03-21T01:38:02;9.38;;;8.13;;
77571;SDS011;67214;47.454;18.966;2023-03-21T01:40:30;10.60;;;8.38;;
77571;SDS011;67214;47.454;18.966;2023-03-21T01:42:57;10.35;;;7.85;;
77571;SDS011;67214;47.454;18.966;2023-03-21T01:48:29;8.95;;;7.40;;
77571;SDS011;67214;47.454;18.966;2023-03-21T01:50:58;13.10;;;8.73;;
77571;SDS011;67214;47.454;18.966;2023-03-21T01:53:27;12.07;;;8.43;;
77571;SDS011;67214;47.454;18.966;2023-03-21T01:56:02;11.08;;;7.85;;
77571;SDS011;67214;47.454;18.966;2023-03-21T01:58:27;13.13;;;8.80;;
77571;SDS011;67214;47.454;18.966;2023-03-21T02:00:56;12.53;;;8.48;;
77571;SDS011;67214;47.454;18.966;2023-03-21T02:03:25;10.78;;;8.68;;
77571;SDS011;67214;47.454;18.966;2023-03-21T02:08:27;9.75;;;8.03;;
77571;SDS011;67214;47.454;18.966;2023-03-21T02:10:56;9.85;;;8.35;;
77571;SDS011;67214;47.454;18.966;2023-03-21T02:13:24;11.65;;;8.73;;
77571;SDS011;67214;47.454;18.966;2023-03-21T02:15:55;10.60;;;8.15;;
77571;SDS011;67214;47.454;18.966;2023-03-21T02:18:27;12.50;;;8.38;;
77571;SDS011;67214;47.454;18.966;2023-03-21T02:21:20;9.88;;;8.28;;
77571;SDS011;67214;47.454;18.966;2023-03-21T02:24:14;12.18;;;8.03;;
77571;SDS011;67214;47.454;18.966;2023-03-21T02:35:16;11.18;;;8.58;;
77571;SDS011;67214;47.454;18.966;2023-03-21T02:40:44;10.03;;;8.13;;
77571;SDS011;67214;47.454;18.966;2023-03-21T02:43:32;9.40;;;7.55;;
77571;SDS011;67214;47.454;18.966;2023-03-21T02:46:14;10.90;;;7.28;;
77571;SDS011;67214;47.454;18.966;2023-03-21T02:49:00;11.88;;;8.15;;
77571;SDS011;67214;47.454;18.966;2023-03-21T02:51:31;9.07;;;7.73;;
77571;SDS011;67214;47.454;18.966;2023-03-21T02:54:06;10.13;;;8.03;;
77571;SDS011;67214;47.454;18.966;2023-03-21T02:56:31;7.70;;;6.40;;
77571;SDS011;67214;47.454;18.966;2023-03-21T02:59:01;9.33;;;7.42;;
77571;SDS011;67214;47.454;18.966;2023-03-21T03:01:31;10.78;;;7.37;;
77571;SDS011;67214;47.454;18.966;2023-03-21T03:03:58;10.70;;;7.62;;
77571;SDS011;67214;47.454;18.966;2023-03-21T03:06:28;8.05;;;7.15;;
77571;SDS011;67214;47.454;18.966;2023-03-21T03:11:44;9.58;;;6.47;;
77571;SDS011;67214;47.454;18.966;2023-03-21T03:17:14;8.60;;;6.10;;
77571;SDS011;67214;47.454;18.966;2023-03-21T03:23:03;10.38;;;6.83;;
77571;SDS011;67214;47.454;18.966;2023-03-21T03:25:48;6.75;;;5.10;;
77571;SDS011;67214;47.454;18.966;2023-03-21T03:28:24;11.12;;;6.25;;
77571;SDS011;67214;47.454;18.966;2023-03-21T03:30:53;8.63;;;5.70;;
77571;SDS011;67214;47.454;18.966;2023-03-21T03:33:22;6.33;;;5.33;;
77571;SDS011;67214;47.454;18.966;2023-03-21T03:35:52;6.72;;;5.62;;
77571;SDS011;67214;47.454;18.966;2023-03-21T03:38:22;7.95;;;5.20;;
77571;SDS011;67214;47.454;18.966;2023-03-21T03:40:57;6.75;;;5.25;;
77571;SDS011;67214;47.454;18.966;2023-03-21T03:43:29;7.62;;;5.03;;
77571;SDS011;67214;47.454;18.966;2023-03-21T03:45:59;6.62;;;5.15;;
77571;SDS011;67214;47.454;18.966;2023-03-21T03:48:36;7.67;;;5.33;;
77571;SDS011;67214;47.454;18.966;2023-03-21T03:51:09;6.90;;;5.45;;
77571;SDS011;67214;47.454;18.966;2023-03-21T03:53:46;7.30;;;5.05;;
77571;SDS011;67214;47.454;18.966;2023-03-21T03:56:11;5.80;;;4.67;;
77571;SDS011;67214;47.454;18.966;2023-03-21T03:58:40;6.92;;;5.22;;
77571;SDS011;67214;47.454;18.966;2023-03-21T04:01:07;7.30;;;4.62;;
77571;SDS011;67214;47.454;18.966;2023-03-21T04:03:36;5.87;;;4.90;;
77571;SDS011;67214;47.454;18.966;2023-03-21T04:06:07;7.30;;;4.78;;
77571;SDS011;67214;47.454;18.966;2023-03-21T04:08:35;6.00;;;4.37;;
77571;SDS011;67214;47.454;18.966;2023-03-21T04:11:03;6.47;;;4.10;;
77571;SDS011;67214;47.454;18.966;2023-03-21T04:13:31;5.67;;;4.30;;
77571;SDS011;67214;47.454;18.966;2023-03-21T04:15:59;5.92;;;4.42;;
77571;SDS011;67214;47.454;18.966;2023-03-21T04:18:27;5.20;;;4.25;;
77571;SDS011;67214;47.454;18.966;2023-03-21T04:20:55;5.22;;;4.60;;
77571;SDS011;67214;47.454;18.966;2023-03-21T04:23:22;6.92;;;5.03;;
77571;SDS011;67214;47.454;18.966;2023-03-21T04:25:51;4.70;;;4.20;;
77571;SDS011;67214;47.454;18.966;2023-03-21T04:28:18;5.80;;;4.78;;
77571;SDS011;67214;47.454;18.966;2023-03-21T04:30:47;5.37;;;4.70;;
77571;SDS011;67214;47.454;18.966;2023-03-21T04:33:14;4.50;;;4.10;;
77571;SDS011;67214;47.454;18.966;2023-03-21T04:35:42;6.25;;;4.47;;
77571;SDS011;67214;47.454;18.966;2023-03-21T04:38:10;6.00;;;4.40;;
77571;SDS011;67214;47.454;18.966;2023-03-21T04:40:38;6.58;;;5.00;;
77571;SDS011;67214;47.454;18.966;2023-03-21T04:43:05;5.62;;;4.50;;
77571;SDS011;67214;47.454;18.966;2023-03-21T04:45:33;6.28;;;4.67;;
77571;SDS011;67214;47.454;18.966;2023-03-21T04:48:00;6.87;;;5.47;;
77571;SDS011;67214;47.454;18.966;2023-03-21T04:50:28;7.25;;;4.40;;
77571;SDS011;67214;47.454;18.966;2023-03-21T04:52:56;7.15;;;5.47;;
77571;SDS011;67214;47.454;18.966;2023-03-21T04:55:24;6.37;;;5.10;;
77571;SDS011;67214;47.454;18.966;2023-03-21T04:57:53;7.85;;;5.20;;
77571;SDS011;67214;47.454;18.966;2023-03-21T05:00:20;8.93;;;5.10;;
77571;SDS011;67214;47.454;18.966;2023-03-21T05:02:48;13.75;;;6.30;;
77571;SDS011;67214;47.454;18.966;2023-03-21T05:05:15;6.08;;;5.12;;
77571;SDS011;67214;47.454;18.966;2023-03-21T05:07:43;6.08;;;5.42;;
77571;SDS011;67214;47.454;18.966;2023-03-21T05:10:11;7.03;;;5.05;;
77571;SDS011;67214;47.454;18.966;2023-03-21T05:12:38;7.65;;;5.87;;
77571;SDS011;67214;47.454;18.966;2023-03-21T05:15:06;6.47;;;5.65;;
77571;SDS011;67214;47.454;18.966;2023-03-21T05:17:35;7.17;;;5.40;;
77571;SDS011;67214;47.454;18.966;2023-03-21T05:20:02;8.20;;;5.17;;
77571;SDS011;67214;47.454;18.966;2023-03-21T05:22:32;7.87;;;6.22;;
77571;SDS011;67214;47.454;18.966;2023-03-21T05:25:01;7.45;;;5.72;;
77571;SDS011;67214;47.454;18.966;2023-03-21T05:27:29;6.30;;;5.40;;
77571;SDS011;67214;47.454;18.966;2023-03-21T05:30:00;6.70;;;5.28;;
77571;SDS011;67214;47.454;18.966;2023-03-21T05:32:32;6.53;;;5.47;;
77571;SDS011;67214;47.454;18.966;2023-03-21T05:34:59;43.15;;;28.47;;
77571;SDS011;67214;47.454;18.966;2023-03-21T05:37:27;14.75;;;12.80;;
77571;SDS011;67214;47.454;18.966;2023-03-21T05:39:55;8.25;;;7.37;;
77571;SDS011;67214;47.454;18.966;2023-03-21T05:42:23;6.67;;;5.25;;
77571;SDS011;67214;47.454;18.966;2023-03-21T05:44:51;6.20;;;5.22;;
77571;SDS011;67214;47.454;18.966;2023-03-21T05:47:19;8.93;;;6.05;;
77571;SDS011;67214;47.454;18.966;2023-03-21T05:49:46;7.53;;;4.87;;
77571;SDS011;67214;47.454;18.966;2023-03-21T05:52:14;7.50;;;5.58;;
77571;SDS011;67214;47.454;18.966;2023-03-21T05:54:42;7.55;;;5.90;;
77571;SDS011;67214;47.454;18.966;2023-03-21T05:57:09;15.95;;;10.48;;
77571;SDS011;67214;47.454;18.966;2023-03-21T05:59:37;28.30;;;16.82;;
77571;SDS011;67214;47.454;18.966;2023-03-21T06:02:04;29.90;;;17.98;;
77571;SDS011;67214;47.454;18.966;2023-03-21T06:04:32;22.27;;;12.98;;
77571;SDS011;67214;47.454;18.966;2023-03-21T06:06:59;36.40;;;22.42;;
77571;SDS011;67214;47.454;18.966;2023-03-21T06:09:27;8.60;;;6.33;;
77571;SDS011;67214;47.454;18.966;2023-03-21T06:11:55;8.93;;;6.62;;
77571;SDS011;67214;47.454;18.966;2023-03-21T06:14:23;7.28;;;6.42;;
77571;SDS011;67214;47.454;18.966;2023-03-21T06:16:51;8.50;;;7.42;;
77571;SDS011;67214;47.454;18.966;2023-03-21T06:19:19;7.25;;;5.33;;
77571;SDS011;67214;47.454;18.966;2023-03-21T06:21:47;7.53;;;6.72;;
77571;SDS011;67214;47.454;18.966;2023-03-21T06:24:15;10.82;;;7.15;;
77571;SDS011;67214;47.454;18.966;2023-03-21T06:26:43;10.20;;;6.30;;
77571;SDS011;67214;47.454;18.966;2023-03-21T06:29:10;6.90;;;5.97;;
77571;SDS011;67214;47.454;18.966;2023-03-21T06:31:38;10.53;;;8.20;;
77571;SDS011;67214;47.454;18.966;2023-03-21T06:34:06;8.33;;;6.03;;
77571;SDS011;67214;47.454;18.966;2023-03-21T06:36:35;9.58;;;5.87;;
77571;SDS011;67214;47.454;18.966;2023-03-21T06:39:03;7.78;;;6.03;;
77571;SDS011;67214;47.454;18.966;2023-03-21T06:41:32;6.95;;;5.35;;
77571;SDS011;67214;47.454;18.966;2023-03-21T06:44:00;6.90;;;6.20;;
77571;SDS011;67214;47.454;18.966;2023-03-21T06:46:28;7.12;;;6.33;;
77571;SDS011;67214;47.454;18.966;2023-03-21T06:48:55;8.33;;;6.87;;
77571;SDS011;67214;47.454;18.966;2023-03-21T06:51:23;6.95;;;6.25;;
77571;SDS011;67214;47.454;18.966;2023-03-21T06:53:50;9.08;;;6.33;;
77571;SDS011;67214;47.454;18.966;2023-03-21T06:56:18;8.05;;;5.65;;
77571;SDS011;67214;47.454;18.966;2023-03-21T06:58:45;7.45;;;5.58;;
77571;SDS011;67214;47.454;18.966;2023-03-21T07:01:13;7.22;;;5.70;;
77571;SDS011;67214;47.454;18.966;2023-03-21T07:03:40;6.92;;;5.45;;
77571;SDS011;67214;47.454;18.966;2023-03-21T07:06:09;6.60;;;4.95;;
77571;SDS011;67214;47.454;18.966;2023-03-21T07:08:38;6.22;;;5.53;;
77571;SDS011;67214;47.454;18.966;2023-03-21T07:11:07;6.70;;;4.42;;
77571;SDS011;67214;47.454;18.966;2023-03-21T07:13:35;7.97;;;5.42;;
77571;SDS011;67214;47.454;18.966;2023-03-21T07:16:03;6.15;;;4.90;;
77571;SDS011;67214;47.454;18.966;2023-03-21T07:18:31;7.25;;;5.85;;
77571;SDS011;67214;47.454;18.966;2023-03-21T07:20:58;6.97;;;5.28;;
77571;SDS011;67214;47.454;18.966;2023-03-21T07:23:25;6.70;;;5.33;;
77571;SDS011;67214;47.454;18.966;2023-03-21T07:25:53;5.72;;;5.12;;
77571;SDS011;67214;47.454;18.966;2023-03-21T07:28:21;8.45;;;5.78;;
77571;SDS011;67214;47.454;18.966;2023-03-21T07:30:54;6.70;;;5.17;;
77571;SDS011;67214;47.454;18.966;2023-03-21T07:33:23;8.48;;;5.90;;
77571;SDS011;67214;47.454;18.966;2023-03-21T07:35:52;6.40;;;5.33;;
77571;SDS011;67214;47.454;18.966;2023-03-21T07:38:22;8.20;;;6.22;;
77571;SDS011;67214;47.454;18.966;2023-03-21T07:40:50;7.08;;;5.40;;
77571;SDS011;67214;47.454;18.966;2023-03-21T07:43:18;6.12;;;5.53;;
77571;SDS011;67214;47.454;18.966;2023-03-21T07:45:46;7.62;;;5.62;;
77571;SDS011;67214;47.454;18.966;2023-03-21T07:48:13;6.35;;;5.62;;
77571;SDS011;67214;47.454;18.966;2023-03-21T07:50:42;7.60;;;6.22;;
77571;SDS011;67214;47.454;18.966;2023-03-21T07:53:10;6.42;;;5.83;;
77571;SDS011;67214;47.454;18.966;2023-03-21T07:55:37;6.72;;;6.00;;
77571;SDS011;67214;47.454;18.966;2023-03-21T07:58:05;6.50;;;5.80;;
77571;SDS011;67214;47.454;18.966;2023-03-21T08:00:32;7.62;;;5.65;;
77571;SDS011;67214;47.454;18.966;2023-03-21T08:02:59;8.90;;;5.45;;
77571;SDS011;67214;47.454;18.966;2023-03-21T08:07:59;7.15;;;5.30;;
77571;SDS011;67214;47.454;18.966;2023-03-21T08:10:26;6.10;;;5.50;;
77571;SDS011;67214;47.454;18.966;2023-03-21T08:12:54;6.40;;;5.10;;
77571;SDS011;67214;47.454;18.966;2023-03-21T08:15:22;6.45;;;5.20;;
77571;SDS011;67214;47.454;18.966;2023-03-21T08:17:50;5.87;;;4.55;;
77571;SDS011;67214;47.454;18.966;2023-03-21T08:20:19;6.78;;;5.37;;
77571;SDS011;67214;47.454;18.966;2023-03-21T08:22:48;8.00;;;5.60;;
77571;SDS011;67214;47.454;18.966;2023-03-21T08:25:17;7.03;;;5.28;;
77571;SDS011;67214;47.454;18.966;2023-03-21T08:27:46;4.83;;;4.28;;
77571;SDS011;67214;47.454;18.966;2023-03-21T08:30:16;7.35;;;4.92;;
77571;SDS011;67214;47.454;18.966;2023-03-21T08:32:45;5.10;;;4.33;;
77571;SDS011;67214;47.454;18.966;2023-03-21T08:35:13;5.37;;;4.08;;
77571;SDS011;67214;47.454;18.966;2023-03-21T08:37:42;4.85;;;4.03;;
77571;SDS011;67214;47.454;18.966;2023-03-21T08:40:10;6.30;;;4.22;;
77571;SDS011;67214;47.454;18.966;2023-03-21T08:42:40;5.87;;;4.28;;
77571;SDS011;67214;47.454;18.966;2023-03-21T08:45:09;13.15;;;3.55;;
77571;SDS011;67214;47.454;18.966;2023-03-21T08:47:38;4.97;;;3.55;;
77571;SDS011;67214;47.454;18.966;2023-03-21T08:50:06;4.78;;;3.95;;
77571;SDS011;67214;47.454;18.966;2023-03-21T08:52:36;4.62;;;3.58;;
77571;SDS011;67214;47.454;18.966;2023-03-21T08:55:03;4.70;;;2.90;;
77571;SDS011;67214;47.454;18.966;2023-03-21T08:57:31;3.80;;;2.85;;
77571;SDS011;67214;47.454;18.966;2023-03-21T08:59:59;3.85;;;3.05;;
77571;SDS011;67214;47.454;18.966;2023-03-21T09:02:26;3.70;;;3.20;;
77571;SDS011;67214;47.454;18.966;2023-03-21T09:04:54;4.67;;;3.92;;
77571;SDS011;67214;47.454;18.966;2023-03-21T09:07:23;5.35;;;3.22;;
77571;SDS011;67214;47.454;18.966;2023-03-21T09:09:52;4.90;;;2.67;;
77571;SDS011;67214;47.454;18.966;2023-03-21T09:12:19;4.37;;;3.15;;
77571;SDS011;67214;47.454;18.966;2023-03-21T09:14:47;3.42;;;2.77;;
77571;SDS011;67214;47.454;18.966;2023-03-21T09:17:14;5.03;;;3.65;;
77571;SDS011;67214;47.454;18.966;2023-03-21T09:19:42;7.65;;;4.70;;
77571;SDS011;67214;47.454;18.966;2023-03-21T09:22:11;9.28;;;5.03;;
77571;SDS011;67214;47.454;18.966;2023-03-21T09:24:46;5.53;;;4.87;;
77571;SDS011;67214;47.454;18.966;2023-03-21T09:27:15;8.10;;;5.22;;
77571;SDS011;67214;47.454;18.966;2023-03-21T09:29:43;5.25;;;4.47;;
77571;SDS011;67214;47.454;18.966;2023-03-21T09:32:11;6.80;;;4.83;;
77571;SDS011;67214;47.454;18.966;2023-03-21T09:34:38;6.33;;;5.40;;
77571;SDS011;67214;47.454;18.966;2023-03-21T09:37:06;5.03;;;4.45;;
77571;SDS011;67214;47.454;18.966;2023-03-21T09:39:42;4.78;;;3.90;;
77571;SDS011;67214;47.454;18.966;2023-03-21T09:47:43;4.90;;;3.50;;
77571;SDS011;67214;47.454;18.966;2023-03-21T09:50:13;4.65;;;3.90;;
77571;SDS011;67214;47.454;18.966;2023-03-21T09:52:45;5.40;;;4.03;;
77571;SDS011;67214;47.454;18.966;2023-03-21T09:55:22;8.58;;;4.05;;
77571;SDS011;67214;47.454;18.966;2023-03-21T09:58:03;3.58;;;2.95;;
77571;SDS011;67214;47.454;18.966;2023-03-21T10:00:36;3.75;;;2.83;;
77571;SDS011;67214;47.454;18.966;2023-03-21T10:03:15;3.10;;;2.62;;
77571;SDS011;67214;47.454;18.966;2023-03-21T10:05:38;3.80;;;3.40;;
77571;SDS011;67214;47.454;18.966;2023-03-21T10:08:13;5.03;;;3.35;;
77571;SDS011;67214;47.454;18.966;2023-03-21T10:10:47;3.85;;;3.22;;
77571;SDS011;67214;47.454;18.966;2023-03-21T10:13:31;5.80;;;3.83;;
77571;SDS011;67214;47.454;18.966;2023-03-21T10:15:57;4.30;;;3.40;;
77571;SDS011;67214;47.454;18.966;2023-03-21T10:18:26;3.52;;;3.08;;
77571;SDS011;67214;47.454;18.966;2023-03-21T10:20:56;2.72;;;2.10;;
77571;SDS011;67214;47.454;18.966;2023-03-21T10:23:24;3.83;;;2.95;;
77571;SDS011;67214;47.454;18.966;2023-03-21T10:25:54;3.92;;;3.00;;
77571;SDS011;67214;47.454;18.966;2023-03-21T10:28:30;5.42;;;3.27;;
77571;SDS011;67214;47.454;18.966;2023-03-21T10:30:56;4.85;;;4.25;;
77571;SDS011;67214;47.454;18.966;2023-03-21T10:33:28;5.95;;;3.72;;
77571;SDS011;67214;47.454;18.966;2023-03-21T10:36:01;4.97;;;3.83;;
77571;SDS011;67214;47.454;18.966;2023-03-21T10:38:30;4.97;;;3.70;;
77571;SDS011;67214;47.454;18.966;2023-03-21T10:40:58;4.58;;;3.67;;
77571;SDS011;67214;47.454;18.966;2023-03-21T10:45:57;4.33;;;3.52;;
77571;SDS011;67214;47.454;18.966;2023-03-21T10:48:26;5.28;;;3.40;;
77571;SDS011;67214;47.454;18.966;2023-03-21T10:50:57;3.72;;;2.65;;
77571;SDS011;67214;47.454;18.966;2023-03-21T10:53:28;2.30;;;1.92;;
77571;SDS011;67214;47.454;18.966;2023-03-21T10:56:08;2.98;;;2.42;;
77571;SDS011;67214;47.454;18.966;2023-03-21T10:58:38;4.75;;;2.67;;
77571;SDS011;67214;47.454;18.966;2023-03-21T11:01:08;3.62;;;2.95;;
77571;SDS011;67214;47.454;18.966;2023-03-21T11:03:41;4.45;;;3.95;;
77571;SDS011;67214;47.454;18.966;2023-03-21T11:06:16;4.47;;;3.08;;
77571;SDS011;67214;47.454;18.966;2023-03-21T11:08:47;3.22;;;2.80;;
77571;SDS011;67214;47.454;18.966;2023-03-21T11:11:18;3.05;;;2.42;;
77571;SDS011;67214;47.454;18.966;2023-03-21T11:13:43;3.47;;;2.50;;
77571;SDS011;67214;47.454;18.966;2023-03-21T11:16:13;5.65;;;2.62;;
77571;SDS011;67214;47.454;18.966;2023-03-21T11:18:51;4.28;;;3.40;;
77571;SDS011;67214;47.454;18.966;2023-03-21T11:21:20;2.70;;;2.10;;
77571;SDS011;67214;47.454;18.966;2023-03-21T11:23:49;2.95;;;2.02;;
77571;SDS011;67214;47.454;18.966;2023-03-21T11:26:19;4.05;;;2.80;;
77571;SDS011;67214;47.454;18.966;2023-03-21T11:28:49;3.47;;;2.50;;
77571;SDS011;67214;47.454;18.966;2023-03-21T11:31:17;3.25;;;2.60;;
77571;SDS011;67214;47.454;18.966;2023-03-21T11:33:55;3.33;;;2.35;;
77571;SDS011;67214;47.454;18.966;2023-03-21T11:36:30;3.80;;;2.77;;
77571;SDS011;67214;47.454;18.966;2023-03-21T11:41:39;3.67;;;2.80;;
77571;SDS011;67214;47.454;18.966;2023-03-21T11:44:22;3.85;;;2.65;;
77571;SDS011;67214;47.454;18.966;2023-03-21T11:46:41;3.90;;;2.70;;
77571;SDS011;67214;47.454;18.966;2023-03-21T11:49:08;3.22;;;2.60;;
77571;SDS011;67214;47.454;18.966;2023-03-21T12:00:23;3.08;;;2.40;;
77571;SDS011;67214;47.454;18.966;2023-03-21T12:03:06;3.85;;;2.60;;
77571;SDS011;67214;47.454;18.966;2023-03-21T12:05:59;2.45;;;2.15;;
77571;SDS011;67214;47.454;18.966;2023-03-21T12:08:42;6.62;;;2.98;;
77571;SDS011;67214;47.454;18.966;2023-03-21T12:11:14;3.52;;;2.72;;
77571;SDS011;67214;47.454;18.966;2023-03-21T12:19:07;3.75;;;2.70;;
77571;SDS011;67214;47.454;18.966;2023-03-21T12:27:07;4.87;;;2.70;;
77571;SDS011;67214;47.454;18.966;2023-03-21T12:32:31;3.70;;;3.08;;
77571;SDS011;67214;47.454;18.966;2023-03-21T12:38:05;4.47;;;2.75;;
77571;SDS011;67214;47.454;18.966;2023-03-21T12:43:20;3.75;;;2.80;;
77571;SDS011;67214;47.454;18.966;2023-03-21T12:45:49;3.87;;;2.65;;
77571;SDS011;67214;47.454;18.966;2023-03-21T12:56:53;4.90;;;2.50;;
77571;SDS011;67214;47.454;18.966;2023-03-21T13:01:57;3.45;;;2.20;;
77571;SDS011;67214;47.454;18.966;2023-03-21T13:04:29;4.55;;;2.50;;
77571;SDS011;67214;47.454;18.966;2023-03-21T13:07:00;4.35;;;2.25;;
77571;SDS011;67214;47.454;18.966;2023-03-21T13:09:37;4.65;;;2.22;;
77571;SDS011;67214;47.454;18.966;2023-03-21T13:15:00;2.77;;;2.42;;
77571;SDS011;67214;47.454;18.966;2023-03-21T13:17:37;4.62;;;2.12;;
77571;SDS011;67214;47.454;18.966;2023-03-21T13:22:58;2.75;;;2.27;;
77571;SDS011;67214;47.454;18.966;2023-03-21T13:25:27;3.10;;;2.08;;
77571;SDS011;67214;47.454;18.966;2023-03-21T13:28:01;3.12;;;2.37;;
77571;SDS011;67214;47.454;18.966;2023-03-21T13:30:30;2.62;;;2.37;;
77571;SDS011;67214;47.454;18.966;2023-03-21T13:33:12;3.27;;;2.70;;
77571;SDS011;67214;47.454;18.966;2023-03-21T13:35:42;3.25;;;2.45;;
77571;SDS011;67214;47.454;18.966;2023-03-21T13:40:46;3.30;;;2.60;;
77571;SDS011;67214;47.454;18.966;2023-03-21T13:46:14;2.92;;;2.10;;
77571;SDS011;67214;47.454;18.966;2023-03-21T13:54:00;5.70;;;1.90;;
77571;SDS011;67214;47.454;18.966;2023-03-21T13:56:28;3.72;;;1.60;;
77571;SDS011;67214;47.454;18.966;2023-03-21T13:59:17;2.90;;;1.80;;
77571;SDS011;67214;47.454;18.966;2023-03-21T14:04:40;4.08;;;1.70;;
77571;SDS011;67214;47.454;18.966;2023-03-21T14:07:14;2.35;;;1.85;;
77571;SDS011;67214;47.454;18.966;2023-03-21T14:09:46;5.20;;;1.95;;
77571;SDS011;67214;47.454;18.966;2023-03-21T14:12:16;4.40;;;2.98;;
77571;SDS011;67214;47.454;18.966;2023-03-21T14:14:58;5.00;;;2.80;;
77571;SDS011;67214;47.454;18.966;2023-03-21T14:17:29;4.65;;;2.45;;
77571;SDS011;67214;47.454;18.966;2023-03-21T14:20:00;2.83;;;2.45;;
77571;SDS011;67214;47.454;18.966;2023-03-21T14:22:30;2.80;;;2.25;;
77571;SDS011;67214;47.454;18.966;2023-03-21T14:24:59;2.65;;;2.15;;
77571;SDS011;67214;47.454;18.966;2023-03-21T14:27:31;3.87;;;2.52;;
77571;SDS011;67214;47.454;18.966;2023-03-21T14:30:02;3.37;;;2.00;;
77571;SDS011;67214;47.454;18.966;2023-03-21T14:32:31;2.90;;;2.05;;
77571;SDS011;67214;47.454;18.966;2023-03-21T14:35:00;3.55;;;2.02;;
77571;SDS011;67214;47.454;18.966;2023-03-21T14:37:32;2.22;;;1.65;;
77571;SDS011;67214;47.454;18.966;2023-03-21T14:40:06;2.80;;;2.20;;
77571;SDS011;67214;47.454;18.966;2023-03-21T14:42:35;2.33;;;1.90;;
77571;SDS011;67214;47.454;18.966;2023-03-21T14:45:13;4.58;;;2.52;;
77571;SDS011;67214;47.454;18.966;2023-03-21T14:48:06;3.47;;;2.37;;
77571;SDS011;67214;47.454;18.966;2023-03-21T14:50:23;8.73;;;2.37;;
77571;SDS011;67214;47.454;18.966;2023-03-21T14:52:58;3.22;;;2.27;;
77571;SDS011;67214;47.454;18.966;2023-03-21T14:55:26;3.47;;;2.30;;
77571;SDS011;67214;47.454;18.966;2023-03-21T14:57:54;5.97;;;2.33;;
77571;SDS011;67214;47.454;18.966;2023-03-21T15:00:26;3.00;;;2.47;;
77571;SDS011;67214;47.454;18.966;2023-03-21T15:02:56;6.20;;;2.30;;
77571;SDS011;67214;47.454;18.966;2023-03-21T15:05:28;2.40;;;2.00;;
77571;SDS011;67214;47.454;18.966;2023-03-21T15:07:59;4.03;;;2.45;;
77571;SDS011;67214;47.454;18.966;2023-03-21T15:10:29;13.43;;;2.50;;
77571;SDS011;67214;47.454;18.966;2023-03-21T15:12:58;3.92;;;2.27;;
77571;SDS011;67214;47.454;18.966;2023-03-21T15:15:28;3.58;;;2.70;;
77571;SDS011;67214;47.454;18.966;2023-03-21T15:17:59;3.70;;;2.30;;
77571;SDS011;67214;47.454;18.966;2023-03-21T15:20:28;8.18;;;2.87;;
77571;SDS011;67214;47.454;18.966;2023-03-21T15:23:00;3.80;;;2.80;;
77571;SDS011;67214;47.454;18.966;2023-03-21T15:25:29;4.20;;;2.50;;
77571;SDS011;67214;47.454;18.966;2023-03-21T15:27:58;3.33;;;2.55;;
77571;SDS011;67214;47.454;18.966;2023-03-21T15:30:27;7.20;;;3.12;;
77571;SDS011;67214;47.454;18.966;2023-03-21T15:33:04;4.67;;;2.65;;
77571;SDS011;67214;47.454;18.966;2023-03-21T15:35:44;4.20;;;3.05;;
77571;SDS011;67214;47.454;18.966;2023-03-21T15:38:28;8.35;;;6.17;;
77571;SDS011;67214;47.454;18.966;2023-03-21T15:41:12;6.17;;;3.40;;
77571;SDS011;67214;47.454;18.966;2023-03-21T15:43:42;5.00;;;3.58;;
77571;SDS011;67214;47.454;18.966;2023-03-21T15:46:30;5.83;;;3.10;;
77571;SDS011;67214;47.454;18.966;2023-03-21T15:48:43;4.15;;;3.22;;
77571;SDS011;67214;47.454;18.966;2023-03-21T15:51:20;4.85;;;3.52;;
77571;SDS011;67214;47.454;18.966;2023-03-21T15:53:50;3.40;;;3.05;;
77571;SDS011;67214;47.454;18.966;2023-03-21T15:56:21;5.78;;;3.60;;
77571;SDS011;67214;47.454;18.966;2023-03-21T15:58:50;7.15;;;3.87;;
77571;SDS011;67214;47.454;18.966;2023-03-21T16:01:19;7.03;;;3.72;;
77571;SDS011;67214;47.454;18.966;2023-03-21T16:03:56;5.97;;;4.17;;
77571;SDS011;67214;47.454;18.966;2023-03-21T16:06:29;5.15;;;3.25;;
77571;SDS011;67214;47.454;18.966;2023-03-21T16:11:46;4.95;;;3.75;;
77571;SDS011;67214;47.454;18.966;2023-03-21T16:14:19;6.03;;;4.08;;
77571;SDS011;67214;47.454;18.966;2023-03-21T16:16:48;4.47;;;3.12;;
77571;SDS011;67214;47.454;18.966;2023-03-21T16:19:16;4.92;;;3.67;;
77571;SDS011;67214;47.454;18.966;2023-03-21T16:21:43;4.58;;;3.75;;
77571;SDS011;67214;47.454;18.966;2023-03-21T16:24:11;4.85;;;3.65;;
77571;SDS011;67214;47.454;18.966;2023-03-21T16:26:43;5.37;;;4.10;;
77571;SDS011;67214;47.454;18.966;2023-03-21T16:29:14;6.40;;;3.90;;
77571;SDS011;67214;47.454;18.966;2023-03-21T16:31:43;5.72;;;3.90;;
77571;SDS011;67214;47.454;18.966;2023-03-21T16:34:12;9.35;;;4.80;;